createdAt,value
2024-02-02T00:02:07.972Z,99098.44
2024-02-02T00:04:35.087Z,99097.91
2024-02-02T00:07:02.321Z,99093.28
2024-02-02T00:09:29.474Z,99088.50
2024-02-02T00:11:57.101Z,99092.47
2024-02-02T00:14:26.194Z,99098.88
2024-02-02T00:16:53.329Z,99086.06
2024-02-02T00:19:20.515Z,99086.44
2024-02-02T00:21:47.670Z,99092.84
2024-02-02T00:24:14.743Z,99088.81
2024-02-02T00:26:41.786Z,99088.91
2024-02-02T00:29:08.915Z,99086.59
2024-02-02T00:31:37.510Z,99093.66
2024-02-02T00:34:04.707Z,99098.94
2024-02-02T00:36:31.792Z,99105.34
2024-02-02T00:38:59.008Z,99101.72
2024-02-02T00:41:26.167Z,99109.19
2024-02-02T00:43:53.235Z,99099.06
2024-02-02T00:46:20.278Z,99104.31
2024-02-02T00:48:48.820Z,99108.03
2024-02-02T00:51:16.092Z,99109.66
2024-02-02T00:53:43.146Z,99108.56
2024-02-02T00:56:10.262Z,99114.16
2024-02-02T00:58:37.666Z,99105.63
2024-02-02T01:01:05.096Z,99097.00
2024-02-02T01:03:34.973Z,99107.53
2024-02-02T01:06:04.689Z,99102.75
2024-02-02T01:08:31.894Z,99104.47
2024-02-02T01:11:01.955Z,99103.84
2024-02-02T01:13:31.067Z,99104.38
2024-02-02T01:15:58.280Z,99099.88
2024-02-02T01:18:25.753Z,99103.34
2024-02-02T01:20:53.064Z,99097.34
2024-02-02T01:23:21.614Z,99104.66
2024-02-02T01:25:48.810Z,99094.38
2024-02-02T01:28:15.933Z,99098.00
2024-02-02T01:30:43.089Z,99088.56
2024-02-02T01:33:11.295Z,99096.88
2024-02-02T01:35:38.601Z,99088.72
2024-02-02T01:38:05.925Z,99098.34
2024-02-02T01:40:34.695Z,99105.00
2024-02-02T01:43:01.785Z,99099.94
2024-02-02T01:45:28.982Z,99095.38
2024-02-02T01:47:56.908Z,99101.13
2024-02-02T01:50:24.217Z,99084.03
2024-02-02T01:52:51.342Z,99091.38
2024-02-02T01:55:18.443Z,99091.22
2024-02-02T01:57:47.660Z,99096.69
2024-02-02T02:00:15.499Z,99091.63
2024-02-02T02:02:42.750Z,99085.25
2024-02-02T02:05:11.003Z,99086.56
2024-02-02T02:07:38.339Z,99100.31
2024-02-02T02:10:06.405Z,99085.25
2024-02-02T02:12:35.128Z,99091.25
2024-02-02T02:15:04.057Z,99093.94
2024-02-02T02:17:31.474Z,99095.16
2024-02-02T02:19:59.755Z,99089.69
2024-02-02T02:22:28.316Z,99090.25
2024-02-02T02:24:55.347Z,99095.03
2024-02-02T02:27:22.673Z,99099.47
2024-02-02T02:29:49.743Z,99093.84
2024-02-02T02:32:17.214Z,99088.81
2024-02-02T02:34:44.401Z,99091.06
2024-02-02T02:37:11.609Z,99094.53
2024-02-02T02:39:40.103Z,99102.00
2024-02-02T02:42:07.627Z,99110.38
2024-02-02T02:44:34.759Z,99107.06
2024-02-02T02:47:01.875Z,99107.47
2024-02-02T02:49:30.296Z,99097.47
2024-02-02T02:51:57.881Z,99108.78
2024-02-02T02:54:25.594Z,99107.22
2024-02-02T02:56:54.105Z,99095.34
2024-02-02T02:59:21.229Z,99104.94
2024-02-02T03:01:48.721Z,99103.84
2024-02-02T03:04:17.171Z,99094.81
2024-02-02T03:06:44.401Z,99102.00
2024-02-02T03:09:13.017Z,99101.06
2024-02-02T03:11:40.343Z,99108.66
2024-02-02T03:14:08.995Z,99108.00
2024-02-02T03:16:36.203Z,99107.22
2024-02-02T03:19:03.456Z,99112.28
2024-02-02T03:21:30.960Z,99116.53
2024-02-02T03:23:58.119Z,99109.34
2024-02-02T03:26:25.180Z,99124.41
2024-02-02T03:28:52.246Z,99132.25
2024-02-02T03:31:20.732Z,99130.91
2024-02-02T03:33:48.316Z,99124.00
2024-02-02T03:36:15.525Z,99132.50
2024-02-02T03:38:42.695Z,99131.72
2024-02-02T03:41:09.796Z,99133.03
2024-02-02T03:43:36.924Z,99142.91
2024-02-02T03:46:04.130Z,99136.75
2024-02-02T03:48:32.743Z,99144.22
2024-02-02T03:50:59.919Z,99133.97
2024-02-02T03:53:27.039Z,99143.56
2024-02-02T03:55:54.110Z,99130.09
2024-02-02T03:58:21.219Z,99131.44
2024-02-02T04:00:48.396Z,99134.22
2024-02-02T04:03:16.750Z,99135.03
2024-02-02T04:05:45.374Z,99131.44
2024-02-02T04:08:12.503Z,99136.22
2024-02-02T04:10:39.630Z,99143.03
2024-02-02T04:13:06.910Z,99146.09
2024-02-02T04:15:34.238Z,99150.44
2024-02-02T04:18:01.426Z,99146.72
2024-02-02T04:20:28.947Z,99144.47
2024-02-02T04:22:57.836Z,99148.56
2024-02-02T04:25:24.918Z,99153.22
2024-02-02T04:27:52.304Z,99146.81
2024-02-02T04:30:19.487Z,99158.00
2024-02-02T04:32:46.682Z,99164.13
2024-02-02T04:35:14.055Z,99159.81
2024-02-02T04:37:41.189Z,99152.72
2024-02-02T04:40:13.329Z,99152.06
2024-02-02T04:42:40.868Z,99155.53
2024-02-02T04:45:08.876Z,99165.25
2024-02-02T04:47:35.956Z,99159.00
2024-02-02T04:50:03.486Z,99168.22
2024-02-02T04:52:30.588Z,99175.47
2024-02-02T04:54:58.167Z,99169.06
2024-02-02T04:57:26.882Z,99169.59
2024-02-02T04:59:55.580Z,99166.81
2024-02-02T05:02:22.829Z,99173.72
2024-02-02T05:04:49.908Z,99180.63
2024-02-02T05:07:16.988Z,99179.81
2024-02-02T05:09:44.436Z,99185.94
2024-02-02T05:12:12.621Z,99185.53
2024-02-02T05:14:41.107Z,99193.63
2024-02-02T05:17:08.210Z,99198.97
2024-02-02T05:19:35.435Z,99207.47
2024-02-02T05:22:02.601Z,99202.28
2024-02-02T05:24:42.967Z,99206.41
2024-02-02T05:27:13.874Z,99210.69
2024-02-02T05:29:44.526Z,99221.03
2024-02-02T05:32:11.642Z,99225.19
2024-02-02T05:34:38.818Z,99219.47
2024-02-02T05:37:06.114Z,99221.03
2024-02-02T05:39:33.316Z,99225.84
2024-02-02T05:42:04.252Z,99229.81
2024-02-02T05:44:31.533Z,99235.16
2024-02-02T05:47:00.113Z,99246.34
2024-02-02T05:49:27.287Z,99250.06
2024-02-02T05:51:54.493Z,99250.88
2024-02-02T05:54:21.811Z,99253.41
2024-02-02T05:56:48.965Z,99262.31
2024-02-02T05:59:16.090Z,99258.84
2024-02-02T06:01:43.234Z,99268.97
2024-02-02T06:04:11.984Z,99288.84
2024-02-02T06:06:39.147Z,99281.59
2024-02-02T06:09:06.645Z,99278.16
2024-02-02T06:11:33.762Z,99286.25
2024-02-02T06:14:01.293Z,99294.78
2024-02-02T06:16:28.851Z,99296.09
2024-02-02T06:18:56.290Z,99300.06
2024-02-02T06:21:25.029Z,99305.53
2024-02-02T06:23:52.147Z,99309.25
2024-02-02T06:26:19.217Z,99313.91
2024-02-02T06:28:46.897Z,99315.22
2024-02-02T06:31:17.007Z,99325.50
2024-02-02T06:33:44.127Z,99327.09
2024-02-02T06:36:11.282Z,99314.94
2024-02-02T06:38:39.883Z,99316.25
2024-02-02T06:41:08.675Z,99324.81
2024-02-02T06:43:35.850Z,99327.50
2024-02-02T06:46:05.754Z,99326.41
2024-02-02T06:48:36.169Z,99339.75
2024-02-02T06:51:05.347Z,99345.34
2024-02-02T06:53:34.530Z,99340.78
2024-02-02T06:56:08.239Z,99347.69
2024-02-02T06:58:41.344Z,99344.88
2024-02-02T07:01:08.972Z,99341.75
2024-02-02T07:03:36.679Z,99343.59
2024-02-02T07:06:06.873Z,99348.38
2024-02-02T07:08:34.499Z,99349.03
2024-02-02T07:11:39.777Z,99348.75
2024-02-02T07:14:10.992Z,99349.25
2024-02-02T07:16:38.371Z,99351.38
2024-02-02T07:19:05.678Z,99355.34
2024-02-02T07:21:34.618Z,99347.47
2024-02-02T07:24:04.022Z,99356.56
2024-02-02T07:26:33.381Z,99358.41
2024-02-02T07:29:06.467Z,99354.16
2024-02-02T07:31:39.090Z,99363.22
2024-02-02T07:34:34.518Z,99362.94
2024-02-02T07:37:02.508Z,99371.06
2024-02-02T07:39:31.881Z,99365.81
2024-02-02T07:42:01.820Z,99366.50
2024-02-02T07:44:29.169Z,99365.25
2024-02-02T07:46:56.217Z,99377.00
2024-02-02T07:49:23.368Z,99379.41
2024-02-02T07:51:50.466Z,99384.34
2024-02-02T07:54:18.149Z,99390.22
2024-02-02T07:56:45.524Z,99385.94
2024-02-02T07:59:13.935Z,99379.66
2024-02-02T08:01:41.154Z,99384.41
2024-02-02T08:04:08.488Z,99381.22
2024-02-02T08:06:36.168Z,99388.19
2024-02-02T08:09:03.376Z,99394.56
2024-02-02T08:11:36.658Z,99387.34
2024-02-02T08:14:04.006Z,99391.47
2024-02-02T08:16:32.517Z,99394.00
2024-02-02T08:19:00.768Z,99410.56
2024-02-02T08:21:28.028Z,99410.94
2024-02-02T08:23:55.381Z,99403.94
2024-02-02T08:26:22.559Z,99405.28
2024-02-02T08:28:54.762Z,99404.47
2024-02-02T08:31:22.747Z,99405.63
2024-02-02T08:33:51.630Z,99405.97
2024-02-02T08:36:21.702Z,99406.50
2024-02-02T08:38:48.960Z,99407.31
2024-02-02T08:41:16.680Z,99405.53
2024-02-02T08:43:43.926Z,99399.38
2024-02-02T08:46:12.381Z,99388.75
2024-02-02T08:48:42.100Z,99396.63
2024-02-02T08:51:48.019Z,99410.19
2024-02-02T08:54:38.069Z,99422.13
2024-02-02T08:57:42.388Z,99431.25
2024-02-02T09:00:15.155Z,99423.75
2024-02-02T09:03:00.330Z,99431.25
2024-02-02T09:05:49.162Z,99439.03
2024-02-02T09:08:35.225Z,99434.41
2024-02-02T09:11:18.662Z,99431.28
2024-02-02T09:13:46.655Z,99428.91
2024-02-02T09:16:15.612Z,99428.38
2024-02-02T09:18:46.311Z,99439.72
2024-02-02T09:21:17.924Z,99432.44
2024-02-02T09:23:52.724Z,99437.25
2024-02-02T09:26:33.346Z,99443.31
2024-02-02T09:29:01.853Z,99452.09
2024-02-02T09:31:33.519Z,99451.66
2024-02-02T09:34:06.147Z,99447.22
2024-02-02T09:36:33.444Z,99444.66
2024-02-02T09:39:07.475Z,99452.16
2024-02-02T09:41:54.731Z,99454.84
2024-02-02T09:44:36.509Z,99443.75
2024-02-02T09:47:20.086Z,99441.81
2024-02-02T09:50:00.381Z,99439.28
2024-02-02T09:52:37.255Z,99435.81
2024-02-02T09:55:13.998Z,99435.00
2024-02-02T09:57:50.881Z,99432.59
2024-02-02T10:00:26.173Z,99434.34
2024-02-02T10:03:05.588Z,99437.53
2024-02-02T10:05:43.444Z,99436.72
2024-02-02T10:08:26.642Z,99435.28
2024-02-02T10:11:09.646Z,99438.94
2024-02-02T10:13:48.569Z,99440.03
2024-02-02T10:16:28.156Z,99433.84
2024-02-02T10:19:18.908Z,99429.53
2024-02-02T10:21:57.226Z,99437.03
2024-02-02T10:24:46.735Z,99427.81
2024-02-02T10:27:30.087Z,99428.47
2024-02-02T10:30:09.126Z,99438.66
2024-02-02T10:32:52.845Z,99439.56
2024-02-02T10:35:31.145Z,99432.75
2024-02-02T10:38:11.872Z,99437.53
2024-02-02T10:40:46.212Z,99432.94
2024-02-02T10:43:39.617Z,99429.47
2024-02-02T10:46:18.703Z,99437.44
2024-02-02T10:49:04.806Z,99433.63
2024-02-02T10:51:39.552Z,99435.72
2024-02-02T10:54:27.544Z,99437.81
2024-02-02T10:57:06.499Z,99439.81
2024-02-02T10:59:44.281Z,99436.63
2024-02-02T11:02:22.665Z,99435.56
2024-02-02T11:05:02.315Z,99433.63
2024-02-02T11:07:34.512Z,99438.88
2024-02-02T11:10:04.676Z,99433.31
2024-02-02T11:12:42.517Z,99430.25
2024-02-02T11:15:26.592Z,99434.72
2024-02-02T11:18:09.152Z,99432.78
2024-02-02T11:20:49.074Z,99430.75
2024-02-02T11:23:22.015Z,99433.47
2024-02-02T11:25:54.962Z,99436.38
2024-02-02T11:28:32.068Z,99435.59
2024-02-02T11:31:10.738Z,99427.19
2024-02-02T11:33:47.692Z,99440.91
2024-02-02T11:36:29.369Z,99433.78
2024-02-02T11:39:10.766Z,99440.16
2024-02-02T11:41:40.364Z,99445.72
2024-02-02T11:44:09.668Z,99439.69
2024-02-02T11:46:39.321Z,99443.69
2024-02-02T11:49:10.517Z,99453.06
2024-02-02T11:51:41.859Z,99444.44
2024-02-02T11:54:19.607Z,99442.34
2024-02-02T11:56:51.130Z,99436.47
2024-02-02T11:59:23.165Z,99432.16
2024-02-02T12:02:07.727Z,99440.63
2024-02-02T12:04:41.823Z,99440.31
2024-02-02T12:07:23.970Z,99435.84
2024-02-02T12:09:59.654Z,99439.84
2024-02-02T12:12:33.199Z,99444.13
2024-02-02T12:15:00.517Z,99440.63
2024-02-02T12:17:29.761Z,99443.03
2024-02-02T12:19:59.933Z,99431.72
2024-02-02T12:22:27.315Z,99433.34
2024-02-02T12:24:54.592Z,99447.00
2024-02-02T12:27:21.924Z,99444.66
2024-02-02T12:29:49.406Z,99456.56
2024-02-02T12:32:16.550Z,99453.22
2024-02-02T12:34:46.603Z,99452.75
2024-02-02T12:37:13.898Z,99454.16
2024-02-02T12:39:41.072Z,99457.16
2024-02-02T12:42:08.390Z,99457.63
2024-02-02T12:44:35.610Z,99460.47
2024-02-02T12:47:05.714Z,99467.00
2024-02-02T12:49:34.544Z,99462.41
2024-02-02T12:52:03.187Z,99461.91
2024-02-02T12:54:30.382Z,99464.13
2024-02-02T12:56:57.868Z,99459.47
2024-02-02T12:59:25.237Z,99464.88
2024-02-02T13:01:52.347Z,99469.19
2024-02-02T13:04:20.053Z,99476.19
2024-02-02T13:06:47.561Z,99465.19
2024-02-02T13:09:19.580Z,99467.56
2024-02-02T13:11:47.799Z,99465.84
2024-02-02T13:14:25.785Z,99471.22
2024-02-02T13:17:04.968Z,99469.78
2024-02-02T13:19:36.090Z,99460.56
2024-02-02T13:22:03.531Z,99453.38
2024-02-02T13:24:33.604Z,99451.91
2024-02-02T13:27:04.659Z,99463.56
2024-02-02T13:29:35.475Z,99470.25
2024-02-02T13:32:04.442Z,99471.84
2024-02-02T13:34:32.410Z,99474.22
2024-02-02T13:37:03.953Z,99476.47
2024-02-02T13:39:34.794Z,99474.59
2024-02-02T13:42:06.288Z,99477.13
2024-02-02T13:44:35.279Z,99483.81
2024-02-02T13:47:02.374Z,99485.25
2024-02-02T13:49:33.410Z,99481.78
2024-02-02T13:52:05.641Z,99485.91
2024-02-02T13:54:34.648Z,99484.16
2024-02-02T13:57:02.192Z,99482.56
2024-02-02T13:59:30.606Z,99496.88
2024-02-02T14:02:05.168Z,99491.97
2024-02-02T14:04:32.263Z,99501.34
2024-02-02T14:06:59.537Z,99496.25
2024-02-02T14:09:26.977Z,99502.31
2024-02-02T14:12:04.024Z,99507.41
2024-02-02T14:14:31.288Z,99510.88
2024-02-02T14:17:03.014Z,99508.31
2024-02-02T14:19:30.250Z,99511.03
2024-02-02T14:22:05.506Z,99512.78
2024-02-02T14:24:32.839Z,99519.78
2024-02-02T14:27:02.864Z,99515.63
2024-02-02T14:29:40.723Z,99515.78
2024-02-02T14:32:08.845Z,99528.66
2024-02-02T14:34:36.358Z,99531.22
2024-02-02T14:37:04.619Z,99530.69
2024-02-02T14:39:32.691Z,99540.25
2024-02-02T14:42:01.803Z,99540.53
2024-02-02T14:44:30.162Z,99540.53
2024-02-02T14:46:58.061Z,99547.53
2024-02-02T14:49:27.263Z,99541.81
2024-02-02T14:51:55.287Z,99547.66
2024-02-02T14:54:24.634Z,99554.69
2024-02-02T14:56:52.366Z,99543.69
2024-02-02T14:59:30.824Z,99560.84
2024-02-02T15:01:58.105Z,99562.56
2024-02-02T15:04:25.603Z,99560.97
2024-02-02T15:06:53.201Z,99568.91
2024-02-02T15:09:20.901Z,99566.50
2024-02-02T15:11:48.286Z,99570.94
2024-02-02T15:14:16.244Z,99571.91
2024-02-02T15:16:44.988Z,99571.09
2024-02-02T15:19:12.738Z,99574.72
2024-02-02T15:21:39.990Z,99570.59
2024-02-02T15:24:07.388Z,99576.78
2024-02-02T15:26:36.398Z,99579.47
2024-02-02T15:29:03.775Z,99579.63
2024-02-02T15:31:30.812Z,99579.78
2024-02-02T15:34:01.292Z,99583.41
2024-02-02T15:36:30.125Z,99587.56
2024-02-02T15:39:09.743Z,99585.97
2024-02-02T15:41:44.622Z,99591.34
2024-02-02T15:44:11.736Z,99593.06
2024-02-02T15:46:39.097Z,99594.94
2024-02-02T15:49:07.716Z,99586.00
2024-02-02T15:51:34.828Z,99597.00
2024-02-02T15:54:01.933Z,99591.91
2024-02-02T15:56:29.089Z,99590.75
2024-02-02T15:58:56.114Z,99604.84
2024-02-02T16:01:23.300Z,99597.38
2024-02-02T16:03:51.004Z,99601.94
2024-02-02T16:06:25.427Z,99604.34
2024-02-02T16:08:52.548Z,99599.38
2024-02-02T16:11:20.599Z,99602.06
2024-02-02T16:13:49.040Z,99602.22
2024-02-02T16:16:16.282Z,99601.72
2024-02-02T16:18:43.558Z,99600.13
2024-02-02T16:21:12.471Z,99602.28
2024-02-02T16:23:41.779Z,99609.97
2024-02-02T16:26:09.045Z,99606.41
2024-02-02T16:28:36.162Z,99607.94
2024-02-02T16:31:04.477Z,99615.16
2024-02-02T16:33:31.711Z,99619.47
2024-02-02T16:35:58.950Z,99621.19
2024-02-02T16:38:26.064Z,99622.78
2024-02-02T16:40:54.607Z,99616.38
2024-02-02T16:43:21.665Z,99622.97
2024-02-02T16:45:49.655Z,99619.78
2024-02-02T16:48:19.178Z,99617.41
2024-02-02T16:50:46.857Z,99618.19
2024-02-02T16:53:14.210Z,99624.22
2024-02-02T16:55:41.650Z,99626.63
2024-02-02T16:58:10.176Z,99630.09
2024-02-02T17:00:38.036Z,99631.16
2024-02-02T17:03:05.593Z,99621.94
2024-02-02T17:05:32.742Z,99627.31
2024-02-02T17:08:00.047Z,99629.19
2024-02-02T17:10:27.436Z,99618.50
2024-02-02T17:12:54.489Z,99615.97
2024-02-02T17:15:23.469Z,99623.72
2024-02-02T17:17:50.534Z,99627.22
2024-02-02T17:20:19.194Z,99617.84
2024-02-02T17:22:46.531Z,99626.25
2024-02-02T17:25:13.615Z,99629.75
2024-02-02T17:27:42.431Z,99630.56
2024-02-02T17:30:14.283Z,99627.22
2024-02-02T17:32:42.976Z,99630.69
2024-02-02T17:35:10.356Z,99633.25
2024-02-02T17:37:38.668Z,99642.06
2024-02-02T17:40:08.597Z,99637.56
2024-02-02T17:42:38.202Z,99639.56
2024-02-02T17:45:06.227Z,99652.97
2024-02-02T17:47:33.320Z,99650.03
2024-02-02T17:50:04.008Z,99648.69
2024-02-02T17:52:31.642Z,99662.63
2024-02-02T17:54:58.831Z,99658.44
2024-02-02T17:57:26.351Z,99666.25
2024-02-02T17:59:53.573Z,99662.88
2024-02-02T18:02:20.895Z,99669.19
2024-02-02T18:04:47.953Z,99666.09
2024-02-02T18:07:16.663Z,99668.25
2024-02-02T18:09:43.923Z,99667.56
2024-02-02T18:12:11.899Z,99678.13
2024-02-02T18:14:39.079Z,99678.25
2024-02-02T18:17:06.576Z,99677.63
2024-02-02T18:19:34.004Z,99663.72
2024-02-02T18:22:01.322Z,99669.88
2024-02-02T18:24:29.923Z,99672.81
2024-02-02T18:26:57.211Z,99672.13
2024-02-02T18:29:24.225Z,99676.69
2024-02-02T18:31:51.395Z,99674.94
2024-02-02T18:34:18.513Z,99668.25
2024-02-02T18:36:45.719Z,99664.91
2024-02-02T18:39:14.095Z,99668.53
2024-02-02T18:41:42.643Z,99675.19
2024-02-02T18:44:10.466Z,99686.00
2024-02-02T18:46:37.703Z,99687.47
2024-02-02T18:49:05.869Z,99698.44
2024-02-02T18:51:33.661Z,99696.44
2024-02-02T18:54:00.919Z,99697.91
2024-02-02T18:56:28.376Z,99692.03
2024-02-02T18:58:56.902Z,99707.50
2024-02-02T19:01:25.052Z,99709.66
2024-02-02T19:03:52.948Z,99714.72
2024-02-02T19:06:20.550Z,99711.25
2024-02-02T19:08:47.801Z,99703.25
2024-02-02T19:11:15.419Z,99702.31
2024-02-02T19:13:42.582Z,99705.66
2024-02-02T19:16:18.506Z,99705.53
2024-02-02T19:18:45.744Z,99702.16
2024-02-02T19:21:18.954Z,99700.69
2024-02-02T19:23:46.149Z,99699.38
2024-02-02T19:26:13.381Z,99708.69
2024-02-02T19:28:40.545Z,99707.09
2024-02-02T19:31:07.803Z,99701.91
2024-02-02T19:33:36.774Z,99695.75
2024-02-02T19:36:04.545Z,99704.84
2024-02-02T19:38:33.570Z,99706.31
2024-02-02T19:41:00.630Z,99706.97
2024-02-02T19:43:27.807Z,99706.97
2024-02-02T19:45:54.866Z,99705.66
2024-02-02T19:48:22.256Z,99697.09
2024-02-02T19:50:51.277Z,99695.25
2024-02-02T19:53:18.304Z,99697.78
2024-02-02T19:55:45.453Z,99696.97
2024-02-02T19:58:14.810Z,99701.66
2024-02-02T20:00:42.140Z,99697.63
2024-02-02T20:03:09.279Z,99697.34
2024-02-02T20:05:36.628Z,99695.38
2024-02-02T20:08:06.283Z,99692.56
2024-02-02T20:10:33.287Z,99695.75
2024-02-02T20:13:00.359Z,99686.44
2024-02-02T20:15:28.420Z,99692.56
2024-02-02T20:17:55.796Z,99693.63
2024-02-02T20:20:24.675Z,99687.63
2024-02-02T20:22:51.777Z,99691.88
2024-02-02T20:25:20.354Z,99687.47
2024-02-02T20:27:47.534Z,99698.69
2024-02-02T20:30:15.378Z,99700.56
2024-02-02T20:32:42.569Z,99696.97
2024-02-02T20:35:09.706Z,99696.16
2024-02-02T20:37:36.949Z,99693.75
2024-02-02T20:40:05.289Z,99694.00
2024-02-02T20:42:33.898Z,99693.47
2024-02-02T20:45:04.517Z,99687.84
2024-02-02T20:47:33.163Z,99694.63
2024-02-02T20:50:00.408Z,99702.38
2024-02-02T20:52:27.847Z,99695.44
2024-02-02T20:54:55.805Z,99701.28
2024-02-02T20:57:22.921Z,99689.28
2024-02-02T20:59:51.442Z,99695.69
2024-02-02T21:02:18.529Z,99686.06
2024-02-02T21:04:45.881Z,99685.28
2024-02-02T21:07:13.181Z,99693.41
2024-02-02T21:09:40.470Z,99692.47
2024-02-02T21:12:08.429Z,99688.47
2024-02-02T21:14:35.534Z,99685.78
2024-02-02T21:17:04.276Z,99683.66
2024-02-02T21:19:32.223Z,99681.50
2024-02-02T21:21:59.683Z,99679.38
2024-02-02T21:24:26.768Z,99686.06
2024-02-02T21:26:53.830Z,99694.34
2024-02-02T21:29:20.982Z,99701.81
2024-02-02T21:31:48.037Z,99696.88
2024-02-02T21:34:17.033Z,99694.34
2024-02-02T21:36:44.558Z,99689.28
2024-02-02T21:39:12.237Z,99691.81
2024-02-02T21:41:39.514Z,99687.13
2024-02-02T21:44:10.131Z,99686.06
2024-02-02T21:46:37.451Z,99686.06
2024-02-02T21:49:04.748Z,99687.38
2024-02-02T21:51:33.366Z,99690.06
2024-02-02T21:54:00.456Z,99683.94
2024-02-02T21:56:27.724Z,99685.41
2024-02-02T21:58:54.800Z,99685.94
2024-02-02T22:01:21.944Z,99681.16
2024-02-02T22:03:49.054Z,99682.91
2024-02-02T22:06:16.269Z,99681.16
2024-02-02T22:08:44.748Z,99686.13
2024-02-02T22:11:14.395Z,99677.28
2024-02-02T22:13:41.670Z,99676.34
2024-02-02T22:16:10.264Z,99681.56
2024-02-02T22:18:37.751Z,99669.00
2024-02-02T22:21:05.431Z,99670.47
2024-02-02T22:23:32.597Z,99663.41
2024-02-02T22:26:01.043Z,99666.47
2024-02-02T22:28:29.037Z,99661.41
2024-02-02T22:30:56.259Z,99654.06
2024-02-02T22:33:23.373Z,99661.66
2024-02-02T22:35:50.481Z,99660.06
2024-02-02T22:38:17.842Z,99655.25
2024-02-02T22:40:44.934Z,99655.00
2024-02-02T22:43:13.346Z,99648.06
2024-02-02T22:45:40.423Z,99654.75
2024-02-02T22:48:07.812Z,99646.19
2024-02-02T22:50:34.958Z,99647.69
2024-02-02T22:53:02.038Z,99646.75
2024-02-02T22:55:29.106Z,99640.47
2024-02-02T22:57:56.290Z,99632.47
2024-02-02T23:00:24.856Z,99618.16
2024-02-02T23:02:51.943Z,99622.47
2024-02-02T23:05:19.019Z,99624.88
2024-02-02T23:07:46.230Z,99625.66
2024-02-02T23:10:13.540Z,99617.91
2024-02-02T23:12:40.805Z,99618.84
2024-02-02T23:15:09.154Z,99608.97
2024-02-02T23:17:37.918Z,99602.03
2024-02-02T23:20:06.269Z,99592.97
2024-02-02T23:22:33.409Z,99601.22
2024-02-02T23:25:00.475Z,99600.97
2024-02-02T23:27:27.831Z,99600.81
2024-02-02T23:29:54.936Z,99599.88
2024-02-02T23:32:22.120Z,99588.00
2024-02-02T23:34:51.064Z,99591.63
2024-02-02T23:37:18.157Z,99586.81
2024-02-02T23:39:45.245Z,99583.34
2024-02-02T23:42:12.462Z,99580.94
2024-02-02T23:44:39.605Z,99582.53
2024-02-02T23:47:10.363Z,99572.38
2024-02-02T23:49:37.855Z,99573.31
2024-02-02T23:52:06.983Z,99572.66
2024-02-02T23:54:34.149Z,99574.53
2024-02-02T23:57:01.342Z,99569.59
2024-02-02T23:59:28.398Z,99571.19
